North Stratford, NH (03590)

12:33 AM EST on February 08, 2016 (GMT -0500)
HADS | | Change Station
CLOSE
Current Station
Personal Weather Station
Location: North Stratford, NH
Elevation: 1187 ft
Nearby Weather Stations
Active Advisory: Winter Weather Advisory

Elev 1187 ft 44.75 °N, 71.63 °W | Updated 1 hour ago

Clear
Clear
19.0 °F
Feels Like 19.0 °F
N
0.0
Wind Variable Wind from North
Gusts 0.0 mph

Today
High -- | Low -- °F
--% Chance of Precip.
Yesterday
High -- | Low -- °F
Precip. -- in
Pressure 30.06 in
Visibility 10.0 miles
Clouds Clear
Dew Point Not available.
Humidity Not available.
Rainfall in
Snow Depth Not available.
6:57 AM 5:04 PM
Waning Crescent, 0% visible
METAR KCDA 080515Z AUTO 00000KT 10SM CLR M06/M08 A3006 RMK AO2 T10651085
Pressure 30.06 in
Visibility 10.0 miles
Clouds Clear
Dew Point Not available.
Humidity Not available.
Rainfall in
Snow Depth Not available.
6:57 AM 5:04 PM
Waning Crescent, 0% visible
METAR KCDA 080515Z AUTO 00000KT 10SM CLR M06/M08 A3006 RMK AO2 T10651085

10-Day Weather Forecast

Almanac

Astronomy

Feb. 08, 2016 Rise Set
Actual Time
Civil Twilight
Nautical Twilight
Astronomical Twilight
Moon
Length of Visible Light
Length of Day
Tomorrow will be .
, % of the Moon is Illuminated

Today's Extremes

State Highs State Lows

Community

WunderPhotos

Upload Photos

1,891,384 photos uploaded!

WunderBlog® & News

Nearby

Air Quality

  Air Quality AQ Index Pollutant
Not available.

Snow Depth

Station Depth Elevation

Earthquake Activity

City Distance Mag. Time & Date
Minimum magnitude displayed is 2.5.

Coastal Water Temperatures

Place Temperature

Stations

Nearby Weather Stations

Station Location Temp. Windchill Dew Point Humidity Wind Precip. Elev Updated Type
                   

Watches & Warnings

Winter Weather Advisory
Issued: 3:10 PM EST Feb. 7, 2016 – National Weather Service

... Winter Weather Advisory in effect from noon Monday to noon EST
Tuesday...

The National Weather Service in gray has issued a Winter Weather
Advisory for snow... which is in effect from noon Monday to noon
EST Tuesday.

* Hazard types... snow.

* Accumulations... snow accumulation of 3 to 6 inches.

* Timing... snow begins around midday Monday and continues into
Tuesday.

* Impacts... roads will become snow covered and slippery. Strong
winds will cause blowing and drifting snow and could lead to
low visibility in spots.

* Winds... northeast 10 to 15 mph with gusts up to 25 mph.

* Temperatures... in the single digits and teens.

Precautionary/preparedness actions...

A Winter Weather Advisory for snow means that periods of snow
will cause primarily travel difficulties. Be prepared for snow
covered roads and limited visibilities... and use caution while
driving.